Time;durP1;ratioP1;P1;durP2;ratioP2;P2;SDS_P1;SDS_P2;PMS_P1;PMS_P2;Temp;Humidity;BMP_temperature;BMP_pressure;BME280_temperature;BME280_humidity;BME280_pressure;Samples;Min_cycle;Max_cycle;Signal;HPM_P1;HPM_P2
2021/07/22 00:00:27;;;;;;;0.77;0.77;;;24.70;58.50;;;;;;5014976;28;20439;-26
2021/07/22 00:02:59;;;;;;;1.00;1.00;;;24.50;58.80;;;;;;5006199;28;20459;-26
2021/07/22 00:05:30;;;;;;;2.80;1.40;;;24.50;59.70;;;;;;5013091;28;20510;-26
2021/07/22 00:08:09;;;;;;;1.40;1.30;;;24.50;59.90;;;;;;5021262;28;20462;-27
2021/07/22 00:10:40;;;;;;;0.97;0.70;;;24.50;59.70;;;;;;5025046;28;20453;-26
2021/07/22 00:13:11;;;;;;;0.80;0.80;;;24.30;59.10;;;;;;5022671;28;20434;-26
2021/07/22 00:15:42;;;;;;;0.70;0.70;;;24.00;60.00;;;;;;5006535;28;20483;-25
2021/07/22 00:18:15;;;;;;;0.70;0.70;;;23.70;60.70;;;;;;5020873;28;20489;-26
2021/07/22 00:20:46;;;;;;;1.00;0.70;;;23.80;60.20;;;;;;5011306;28;20513;-26
2021/07/22 00:23:17;;;;;;;0.77;0.77;;;23.90;59.80;;;;;;5030719;28;20465;-26
2021/07/22 00:25:48;;;;;;;0.80;0.80;;;24.00;59.40;;;;;;5021723;28;20493;-27
2021/07/22 00:28:19;;;;;;;0.80;0.80;;;24.10;59.50;;;;;;5034257;28;20484;-27
2021/07/22 00:30:50;;;;;;;0.90;0.90;;;24.00;60.20;;;;;;5005561;28;20506;-27
2021/07/22 00:33:22;;;;;;;1.53;1.43;;;24.00;59.20;;;;;;5020484;28;20896;-26
2021/07/22 00:35:53;;;;;;;1.07;0.90;;;23.70;61.10;;;;;;5023525;28;20470;-26
2021/07/22 00:38:24;;;;;;;0.93;0.70;;;23.80;60.60;;;;;;5019319;28;20454;-26
2021/07/22 00:40:56;;;;;;;1.37;0.90;;;23.80;58.90;;;;;;5016356;28;20483;-26
2021/07/22 00:43:27;;;;;;;0.60;0.60;;;23.70;59.10;;;;;;5005937;28;20474;-26
2021/07/22 00:45:59;;;;;;;0.97;0.97;;;23.70;59.90;;;;;;5030971;28;20450;-26
2021/07/22 00:48:31;;;;;;;0.80;0.80;;;23.50;60.10;;;;;;5016536;28;20489;-26
2021/07/22 00:51:02;;;;;;;1.27;0.90;;;23.50;59.50;;;;;;5006422;28;20942;-27
2021/07/22 00:53:36;;;;;;;0.97;0.97;;;23.40;59.70;;;;;;5022645;28;20425;-26
2021/07/22 00:56:07;;;;;;;0.93;0.83;;;23.50;59.80;;;;;;5023739;28;20470;-26
2021/07/22 00:58:38;;;;;;;1.20;1.10;;;23.40;59.80;;;;;;5026507;28;20491;-26
2021/07/22 01:01:09;;;;;;;1.47;1.00;;;23.30;62.00;;;;;;5011467;28;20478;-26
2021/07/22 01:03:44;;;;;;;0.73;0.73;;;23.30;60.80;;;;;;5011004;28;20443;-28
2021/07/22 01:06:15;;;;;;;1.50;0.87;;;23.40;59.50;;;;;;5015832;28;20685;-26
2021/07/22 01:08:46;;;;;;;1.33;1.23;;;23.20;60.50;;;;;;5007539;28;20449;-25
2021/07/22 01:11:17;;;;;;;0.87;0.87;;;23.10;60.80;;;;;;5015034;28;20485;-26
2021/07/22 01:13:48;;;;;;;1.00;0.80;;;23.10;60.00;;;;;;5023612;28;20466;-26
2021/07/22 01:16:19;;;;;;;0.43;0.43;;;23.10;60.00;;;;;;5022342;28;20503;-27
2021/07/22 01:18:51;;;;;;;0.70;0.70;;;22.90;60.10;;;;;;5016485;28;20450;-26
2021/07/22 01:21:24;;;;;;;1.23;0.80;;;22.90;60.50;;;;;;5016132;28;20421;-26
2021/07/22 01:23:55;;;;;;;0.90;0.80;;;22.90;60.40;;;;;;5023848;28;20432;-26
2021/07/22 01:26:26;;;;;;;1.43;0.80;;;22.80;60.80;;;;;;5020450;28;20450;-26
2021/07/22 01:28:57;;;;;;;0.80;0.80;;;22.70;61.40;;;;;;5015691;28;20486;-26
2021/07/22 01:31:28;;;;;;;0.77;0.77;;;22.80;61.70;;;;;;5004304;28;20456;-26
2021/07/22 01:33:59;;;;;;;1.00;0.60;;;22.70;61.80;;;;;;5019402;28;20442;-26
2021/07/22 01:36:31;;;;;;;1.53;1.43;;;22.70;62.10;;;;;;5021830;28;20973;-26
2021/07/22 01:39:02;;;;;;;3.03;0.60;;;22.60;61.70;;;;;;5023626;28;20440;-26
2021/07/22 01:41:37;;;;;;;0.93;0.83;;;22.50;61.90;;;;;;5015402;28;20481;-26
2021/07/22 01:44:09;;;;;;;1.37;0.70;;;22.50;62.80;;;;;;5014482;28;20459;-26
2021/07/22 01:46:39;;;;;;;0.60;0.60;;;22.40;62.10;;;;;;5004183;28;20456;-25
2021/07/22 01:49:11;;;;;;;1.10;0.70;;;22.50;61.20;;;;;;5007607;28;20533;-25
2021/07/22 01:51:43;;;;;;;2.40;0.90;;;22.40;61.70;;;;;;5017948;28;20847;-25
2021/07/22 01:54:14;;;;;;;0.70;0.70;;;22.40;61.40;;;;;;5010557;28;20421;-26
2021/07/22 01:56:45;;;;;;;0.97;0.80;;;22.40;61.90;;;;;;5021582;28;20421;-26
2021/07/22 01:59:16;;;;;;;0.73;0.73;;;22.30;62.00;;;;;;5021541;28;20468;-26
2021/07/22 02:01:49;;;;;;;0.87;0.60;;;22.40;61.30;;;;;;5022954;28;20455;-26
2021/07/22 02:04:21;;;;;;;0.60;0.60;;;22.30;62.00;;;;;;5023178;28;20425;-26
2021/07/22 02:06:53;;;;;;;0.90;0.90;;;22.20;60.90;;;;;;5003937;28;20458;-26
2021/07/22 02:09:24;;;;;;;0.63;0.63;;;22.20;61.80;;;;;;5003718;28;20482;-26
2021/07/22 02:11:56;;;;;;;0.50;0.50;;;22.10;61.30;;;;;;5003675;28;20440;-26
2021/07/22 02:14:27;;;;;;;0.43;0.40;;;22.00;61.20;;;;;;5003250;28;20461;-26
2021/07/22 02:16:58;;;;;;;0.90;0.90;;;22.00;61.70;;;;;;5003442;28;20468;-26
2021/07/22 02:19:29;;;;;;;1.27;0.83;;;22.00;61.20;;;;;;5004296;28;20429;-27
2021/07/22 02:22:02;;;;;;;0.50;0.50;;;22.00;61.90;;;;;;5018258;28;20452;-25
2021/07/22 02:24:33;;;;;;;2.00;0.80;;;21.90;61.70;;;;;;5003802;28;20429;-26
2021/07/22 02:27:04;;;;;;;2.30;0.70;;;21.90;62.50;;;;;;5015458;28;20440;-26
2021/07/22 02:29:35;;;;;;;1.23;0.67;;;21.80;63.60;;;;;;5021325;28;20456;-26
2021/07/22 02:32:07;;;;;;;0.60;0.60;;;21.80;62.90;;;;;;5004313;28;20430;-26
2021/07/22 02:34:38;;;;;;;0.90;0.50;;;21.70;63.00;;;;;;5003756;28;20426;-26
2021/07/22 02:37:10;;;;;;;0.60;0.60;;;21.80;62.50;;;;;;5018608;28;20433;-26
2021/07/22 02:39:42;;;;;;;0.70;0.70;;;21.70;63.40;;;;;;5016457;28;20451;-26
2021/07/22 02:42:13;;;;;;;0.93;0.60;;;21.60;64.90;;;;;;5003047;28;20475;-26
2021/07/22 02:44:44;;;;;;;0.70;0.70;;;21.60;63.40;;;;;;5014578;28;20428;-26
2021/07/22 02:47:15;;;;;;;0.67;0.67;;;21.70;62.80;;;;;;5012297;28;20470;-25
2021/07/22 02:49:46;;;;;;;1.40;0.80;;;21.60;63.70;;;;;;5006315;28;20524;-26
2021/07/22 02:52:19;;;;;;;0.70;0.70;;;21.50;63.00;;;;;;5002642;28;20430;-25
2021/07/22 02:54:50;;;;;;;0.80;0.80;;;21.40;64.40;;;;;;5003186;28;20547;-25
2021/07/22 02:57:21;;;;;;;1.33;0.70;;;21.40;64.80;;;;;;5002402;28;20553;-25
2021/07/22 02:59:52;;;;;;;0.90;0.90;;;21.30;65.80;;;;;;5009695;28;20460;-25
2021/07/22 03:02:23;;;;;;;1.00;0.57;;;21.20;66.10;;;;;;5012745;28;20421;-25
2021/07/22 03:04:54;;;;;;;1.40;1.07;;;21.20;66.80;;;;;;5011922;28;20869;-26
2021/07/22 03:07:27;;;;;;;1.00;1.00;;;21.10;67.10;;;;;;5007645;28;21449;-26
2021/07/22 03:09:58;;;;;;;3.23;1.00;;;21.10;67.60;;;;;;5020991;28;20471;-27
2021/07/22 03:12:30;;;;;;;4.50;3.10;;;21.00;68.10;;;;;;5021807;28;20433;-26
2021/07/22 03:15:01;;;;;;;1.43;1.33;;;21.00;68.90;;;;;;5016709;28;20519;-27
2021/07/22 03:17:32;;;;;;;1.70;1.00;;;20.90;68.30;;;;;;5007017;28;20422;-26
2021/07/22 03:20:03;;;;;;;1.30;1.10;;;20.90;67.10;;;;;;5013100;28;20442;-26
2021/07/22 03:22:36;;;;;;;0.60;0.60;;;20.90;67.60;;;;;;5012163;28;20421;-26
2021/07/22 03:25:08;;;;;;;0.70;0.70;;;20.80;68.40;;;;;;5008211;28;20422;-27
2021/07/22 03:27:39;;;;;;;0.80;0.70;;;20.70;69.30;;;;;;5016594;28;20459;-27
2021/07/22 03:30:11;;;;;;;0.70;0.70;;;20.60;69.80;;;;;;5021480;28;20467;-27
2021/07/22 03:32:42;;;;;;;1.40;0.90;;;20.50;70.30;;;;;;5021979;28;20433;-26
2021/07/22 03:35:14;;;;;;;1.50;0.90;;;20.50;71.00;;;;;;5022156;28;20466;-26
2021/07/22 03:37:46;;;;;;;0.70;0.70;;;20.40;71.40;;;;;;5007466;28;20470;-27
2021/07/22 03:40:18;;;;;;;0.60;0.60;;;20.30;71.60;;;;;;5015492;28;20462;-27
2021/07/22 03:42:49;;;;;;;1.00;0.70;;;20.30;71.50;;;;;;5002311;28;20478;-27
2021/07/22 03:45:20;;;;;;;0.90;0.90;;;20.30;71.90;;;;;;5008785;28;20513;-27
2021/07/22 03:47:51;;;;;;;1.23;0.77;;;20.20;72.20;;;;;;5002344;28;20455;-26
2021/07/22 03:50:22;;;;;;;0.83;0.60;;;20.20;73.10;;;;;;5015482;28;20471;-26
2021/07/22 03:52:57;;;;;;;1.30;0.90;;;20.10;73.10;;;;;;5021744;28;20454;-25
2021/07/22 03:55:29;;;;;;;0.77;0.70;;;19.90;74.50;;;;;;5031105;28;20468;-26
2021/07/22 03:58:00;;;;;;;1.23;0.90;;;19.90;74.30;;;;;;5017105;28;20429;-25
2021/07/22 04:00:32;;;;;;;0.80;0.70;;;19.80;74.40;;;;;;5014205;28;20490;-26
2021/07/22 04:03:04;;;;;;;1.00;0.53;;;19.80;74.40;;;;;;5025468;28;20732;-25
2021/07/22 04:05:35;;;;;;;0.87;0.87;;;19.70;74.20;;;;;;5012824;28;20452;-25
2021/07/22 04:08:08;;;;;;;1.13;0.90;;;19.70;75.20;;;;;;5018644;28;20493;-26
2021/07/22 04:10:39;;;;;;;2.20;0.83;;;19.60;75.30;;;;;;5019862;28;20509;-25
2021/07/22 04:13:10;;;;;;;0.90;0.90;;;19.60;76.00;;;;;;5029211;28;20464;-25
2021/07/22 04:15:41;;;;;;;0.83;0.70;;;19.50;76.40;;;;;;5013957;28;20614;-26
2021/07/22 04:18:11;;;;;;;1.27;1.27;;;19.50;77.40;;;;;;5006400;28;20482;-26
2021/07/22 04:20:42;;;;;;;1.20;1.20;;;19.40;77.70;;;;;;5005794;28;20441;-26
2021/07/22 04:23:15;;;;;;;1.57;1.47;;;19.30;78.20;;;;;;5014901;28;20541;-25
2021/07/22 04:25:46;;;;;;;1.10;1.00;;;19.30;79.50;;;;;;5014910;28;20464;-25
2021/07/22 04:28:17;;;;;;;2.00;1.20;;;19.30;80.10;;;;;;5024380;28;20469;-26
2021/07/22 04:30:48;;;;;;;0.77;0.77;;;19.20;80.90;;;;;;5024938;28;20472;-26
2021/07/22 04:33:20;;;;;;;1.23;1.00;;;19.10;81.80;;;;;;5024891;28;20497;-26
2021/07/22 04:35:57;;;;;;;1.17;1.17;;;19.00;82.40;;;;;;5023530;28;20607;-27
2021/07/22 04:38:29;;;;;;;2.40;1.60;;;18.90;82.90;;;;;;5018968;28;20458;-26
2021/07/22 04:41:01;;;;;;;0.80;0.80;;;18.80;83.90;;;;;;5005149;28;20483;-26
2021/07/22 04:43:32;;;;;;;1.90;1.30;;;18.70;84.30;;;;;;5005063;28;20455;-25
2021/07/22 04:46:04;;;;;;;0.97;0.97;;;18.70;85.40;;;;;;5023722;28;20425;-25
2021/07/22 04:48:35;;;;;;;1.43;1.33;;;18.60;85.80;;;;;;5006569;28;20459;-27
2021/07/22 04:51:06;;;;;;;1.00;1.00;;;18.50;86.20;;;;;;5017936;28;20489;-26
2021/07/22 04:53:40;;;;;;;1.33;1.00;;;18.60;86.40;;;;;;5023767;28;20473;-26
2021/07/22 04:56:10;;;;;;;1.30;1.20;;;18.50;87.10;;;;;;5009450;28;20450;-26
2021/07/22 04:58:41;;;;;;;1.33;1.23;;;18.50;87.30;;;;;;5016930;28;20874;-26
2021/07/22 05:01:14;;;;;;;1.00;0.90;;;18.50;87.70;;;;;;5022783;28;20465;-26
2021/07/22 05:03:45;;;;;;;1.90;0.73;;;18.40;87.80;;;;;;5023657;28;20517;-26
2021/07/22 05:06:16;;;;;;;1.20;1.07;;;18.30;89.50;;;;;;5013981;28;21265;-26
2021/07/22 05:08:48;;;;;;;1.07;1.07;;;18.10;90.10;;;;;;5019005;28;20453;-26
2021/07/22 05:11:19;;;;;;;1.67;1.57;;;18.20;90.20;;;;;;5015175;28;20522;-26
2021/07/22 05:13:50;;;;;;;1.47;1.37;;;18.10;90.60;;;;;;5017934;28;20458;-26
2021/07/22 05:16:22;;;;;;;1.73;1.27;;;18.00;90.90;;;;;;5022031;28;20500;-26
2021/07/22 05:18:53;;;;;;;1.60;1.50;;;18.00;91.20;;;;;;5015806;28;20936;-26
2021/07/22 05:21:24;;;;;;;1.53;1.43;;;17.90;91.90;;;;;;5023179;28;21030;-26
2021/07/22 05:23:57;;;;;;;1.10;1.10;;;17.80;92.40;;;;;;5023439;28;20482;-26
2021/07/22 05:26:28;;;;;;;2.93;1.40;;;17.80;92.60;;;;;;5023776;28;20450;-26
2021/07/22 05:28:59;;;;;;;1.27;1.27;;;17.80;92.90;;;;;;5022891;28;20565;-26
2021/07/22 05:31:30;;;;;;;1.33;1.27;;;17.70;93.30;;;;;;5015680;28;20521;-26
2021/07/22 05:34:01;;;;;;;2.50;1.63;;;17.80;93.10;;;;;;5016601;28;20462;-26
2021/07/22 05:36:33;;;;;;;0.70;0.70;;;17.70;93.50;;;;;;5021825;28;20528;-25
2021/07/22 05:39:06;;;;;;;0.90;0.90;;;17.60;93.70;;;;;;5010240;28;20533;-25
2021/07/22 05:41:40;;;;;;;0.97;0.83;;;17.70;94.00;;;;;;5023279;28;20524;-26
2021/07/22 05:44:12;;;;;;;1.00;0.90;;;17.60;94.30;;;;;;5022245;28;20446;-25
2021/07/22 05:46:42;;;;;;;1.10;1.10;;;17.50;94.90;;;;;;5022502;28;20465;-25
2021/07/22 05:49:13;;;;;;;1.20;1.10;;;17.50;95.30;;;;;;5015603;28;20544;-26
2021/07/22 05:51:45;;;;;;;1.07;1.00;;;17.50;95.70;;;;;;5003387;28;20566;-26
2021/07/22 05:54:17;;;;;;;1.40;1.00;;;17.50;96.00;;;;;;5016322;28;20462;-26
2021/07/22 05:56:48;;;;;;;1.20;1.10;;;17.40;96.40;;;;;;5023084;28;20490;-26
2021/07/22 05:59:19;;;;;;;1.70;1.60;;;17.30;96.90;;;;;;5015310;28;20478;-26
2021/07/22 06:01:50;;;;;;;1.47;1.40;;;17.20;97.50;;;;;;5005756;28;20534;-27
2021/07/22 06:04:21;;;;;;;2.40;1.93;;;17.20;98.00;;;;;;5022460;28;20459;-26
2021/07/22 06:06:52;;;;;;;1.87;1.10;;;17.20;98.50;;;;;;5021676;28;20489;-26
2021/07/22 06:09:24;;;;;;;0.80;0.80;;;17.10;99.00;;;;;;5016507;28;20773;-26
2021/07/22 06:11:56;;;;;;;1.50;1.10;;;17.10;99.40;;;;;;5003320;28;20500;-26
2021/07/22 06:14:27;;;;;;;1.50;1.40;;;17.00;99.90;;;;;;5015454;28;20842;-27
2021/07/22 06:16:58;;;;;;;1.20;1.10;;;17.00;99.90;;;;;;5022675;28;20764;-25
2021/07/22 06:19:32;;;;;;;1.33;1.23;;;17.00;99.90;;;;;;5017298;28;20455;-25
2021/07/22 06:22:05;;;;;;;1.00;1.00;;;16.90;99.90;;;;;;5002735;28;20957;-26
2021/07/22 06:24:37;;;;;;;1.20;1.10;;;16.90;99.90;;;;;;5003619;28;20503;-26
2021/07/22 06:27:13;;;;;;;1.73;1.63;;;16.90;99.90;;;;;;5003419;28;20462;-26
2021/07/22 06:29:44;;;;;;;1.03;1.03;;;16.70;99.90;;;;;;5010628;28;20501;-26
2021/07/22 06:32:15;;;;;;;0.93;0.93;;;16.70;99.90;;;;;;5022641;28;20525;-25
2021/07/22 06:34:46;;;;;;;0.90;0.90;;;16.60;99.90;;;;;;5007558;28;20537;-25
2021/07/22 06:37:17;;;;;;;0.90;0.90;;;16.60;99.90;;;;;;5004787;28;20583;-26
2021/07/22 06:39:49;;;;;;;1.53;1.10;;;16.60;99.90;;;;;;5011079;28;20915;-26
2021/07/22 06:42:21;;;;;;;0.93;0.83;;;16.60;99.90;;;;;;5002301;28;20512;-25
2021/07/22 06:44:53;;;;;;;0.90;0.90;;;16.60;99.90;;;;;;5018853;28;20443;-26
2021/07/22 06:47:23;;;;;;;2.40;0.97;;;16.50;99.90;;;;;;5018273;28;20469;-26
2021/07/22 06:49:54;;;;;;;1.23;1.20;;;16.40;99.90;;;;;;5022256;28;20458;-26
2021/07/22 06:52:25;;;;;;;2.03;1.20;;;16.40;99.90;;;;;;5021595;28;20888;-26
2021/07/22 06:54:58;;;;;;;0.87;0.80;;;16.40;99.90;;;;;;5022724;28;20454;-25
2021/07/22 06:57:29;;;;;;;1.50;1.30;;;16.40;99.90;;;;;;5007873;28;20541;-26
2021/07/22 07:00:00;;;;;;;0.77;0.77;;;16.30;99.90;;;;;;5022818;28;20450;-26
2021/07/22 07:02:31;;;;;;;1.00;1.00;;;16.30;99.90;;;;;;5021815;28;20454;-26
2021/07/22 07:05:02;;;;;;;1.53;0.83;;;16.20;99.90;;;;;;5008285;28;20462;-26
2021/07/22 07:07:33;;;;;;;1.23;0.90;;;16.20;99.90;;;;;;5003466;28;20776;-25
2021/07/22 07:10:06;;;;;;;2.00;1.23;;;16.20;99.90;;;;;;5014339;28;20473;-26
2021/07/22 07:12:37;;;;;;;1.90;1.40;;;16.10;99.90;;;;;;5021941;28;20494;-26
2021/07/22 07:15:09;;;;;;;2.23;2.13;;;16.10;99.90;;;;;;5023016;28;20469;-25
2021/07/22 07:17:40;;;;;;;1.97;1.67;;;16.00;99.90;;;;;;5016194;28;20479;-26
2021/07/22 07:20:11;;;;;;;1.37;1.10;;;16.00;99.90;;;;;;5011637;28;20744;-26
2021/07/22 07:22:42;;;;;;;1.40;1.30;;;16.00;99.90;;;;;;5021891;28;20478;-26
2021/07/22 07:25:15;;;;;;;1.17;1.07;;;16.00;99.90;;;;;;5023719;28;20454;-26
2021/07/22 07:27:46;;;;;;;1.83;1.17;;;15.90;99.90;;;;;;5011799;28;20508;-26
2021/07/22 07:30:19;;;;;;;1.40;1.10;;;15.90;99.90;;;;;;5026243;28;20489;-26
2021/07/22 07:32:53;;;;;;;0.90;0.90;;;15.90;99.90;;;;;;5010450;28;20513;-26
2021/07/22 07:35:26;;;;;;;3.10;1.37;;;15.80;99.90;;;;;;5010482;28;20481;-26
2021/07/22 07:37:57;;;;;;;1.23;1.00;;;15.80;99.90;;;;;;5012075;28;20450;-26
2021/07/22 07:40:29;;;;;;;1.53;0.90;;;15.70;99.90;;;;;;5016702;28;20460;-26
2021/07/22 07:43:01;;;;;;;1.47;1.00;;;15.80;99.90;;;;;;5025247;28;20474;-26
2021/07/22 07:45:32;;;;;;;2.10;1.90;;;15.80;99.90;;;;;;5016376;28;20458;-26
2021/07/22 07:48:03;;;;;;;2.00;1.90;;;15.70;99.90;;;;;;5011697;28;20464;-25
2021/07/22 07:50:36;;;;;;;1.40;1.30;;;15.70;99.90;;;;;;5009065;28;20563;-25
2021/07/22 07:53:16;;;;;;;1.07;1.03;;;15.70;99.90;;;;;;5025085;28;20494;-25
2021/07/22 07:55:49;;;;;;;0.80;0.80;;;15.60;99.90;;;;;;5015037;28;20451;-26
2021/07/22 07:58:20;;;;;;;1.07;1.00;;;15.60;99.90;;;;;;5013873;28;20458;-26
2021/07/22 08:00:50;;;;;;;1.00;0.90;;;15.60;99.90;;;;;;5006417;28;20554;-26
2021/07/22 08:03:24;;;;;;;1.20;1.13;;;15.60;99.90;;;;;;5006585;28;20519;-26
2021/07/22 08:05:55;;;;;;;1.30;1.20;;;15.60;99.90;;;;;;5005710;28;20518;-26
2021/07/22 08:08:26;;;;;;;1.00;1.00;;;15.60;99.90;;;;;;5020323;28;20450;-26
2021/07/22 08:10:59;;;;;;;0.97;0.97;;;15.50;99.90;;;;;;5015301;28;20458;-26
2021/07/22 08:13:30;;;;;;;0.90;0.90;;;15.60;99.90;;;;;;5022951;28;20485;-26
2021/07/22 08:16:01;;;;;;;2.60;1.20;;;15.50;99.90;;;;;;5025930;28;20454;-26
2021/07/22 08:18:32;;;;;;;1.50;1.23;;;15.50;99.90;;;;;;5024943;28;20451;-26
2021/07/22 08:21:02;;;;;;;1.27;1.00;;;15.40;99.90;;;;;;5010241;28;20481;-26
2021/07/22 08:23:33;;;;;;;1.73;1.10;;;15.40;99.90;;;;;;5016682;28;20478;-26
2021/07/22 08:26:07;;;;;;;1.13;1.13;;;15.50;99.90;;;;;;5006653;28;20447;-26
2021/07/22 08:28:38;;;;;;;1.10;1.00;;;15.40;99.90;;;;;;5014270;28;20450;-26
2021/07/22 08:31:09;;;;;;;1.30;1.20;;;15.40;99.90;;;;;;5010231;28;20505;-26
2021/07/22 08:33:41;;;;;;;2.67;1.63;;;15.30;99.90;;;;;;5025331;28;20482;-26
2021/07/22 08:36:12;;;;;;;2.10;1.10;;;15.30;99.90;;;;;;5021732;28;20466;-26
2021/07/22 08:38:43;;;;;;;1.33;1.23;;;15.30;99.90;;;;;;5024706;28;20509;-26
2021/07/22 08:41:17;;;;;;;1.83;1.00;;;15.20;99.90;;;;;;5009009;28;20482;-26
2021/07/22 08:43:52;;;;;;;1.43;1.00;;;15.20;99.90;;;;;;5005719;28;20451;-26
2021/07/22 08:46:22;;;;;;;2.70;1.00;;;15.20;99.90;;;;;;5017224;28;20485;-26
2021/07/22 08:48:54;;;;;;;2.20;1.33;;;15.20;99.90;;;;;;5016221;28;20480;-26
2021/07/22 08:51:26;;;;;;;1.03;0.97;;;15.10;99.90;;;;;;5004981;28;20768;-25
2021/07/22 08:53:58;;;;;;;1.87;1.40;;;15.10;99.90;;;;;;5005619;28;20490;-27
2021/07/22 08:56:32;;;;;;;1.73;1.00;;;15.10;99.90;;;;;;5019767;28;20485;-26
2021/07/22 08:59:05;;;;;;;1.40;1.30;;;15.00;99.90;;;;;;5006167;28;20480;-26
2021/07/22 09:01:38;;;;;;;3.83;1.30;;;15.00;99.90;;;;;;5024182;28;20489;-26
2021/07/22 09:04:10;;;;;;;1.30;1.20;;;15.00;99.90;;;;;;5024785;28;20462;-26
2021/07/22 09:06:40;;;;;;;1.30;1.20;;;14.90;99.90;;;;;;5023411;28;20814;-26
2021/07/22 09:09:15;;;;;;;1.20;1.20;;;15.00;99.90;;;;;;5019685;28;20489;-26
2021/07/22 09:11:58;;;;;;;1.17;1.17;;;14.90;99.90;;;;;;5024224;28;20453;-26
2021/07/22 09:14:31;;;;;;;2.00;1.33;;;14.90;99.90;;;;;;5024589;28;20533;-25
2021/07/22 09:17:02;;;;;;;1.40;1.30;;;14.80;99.90;;;;;;5023413;28;20450;-25
2021/07/22 09:19:36;;;;;;;3.30;3.00;;;14.80;99.90;;;;;;5023689;28;20481;-26
2021/07/22 09:22:08;;;;;;;2.70;1.30;;;14.80;99.90;;;;;;5004326;28;20487;-26
2021/07/22 09:24:52;;;;;;;4.10;1.30;;;14.80;99.90;;;;;;5010910;28;20454;-25
2021/07/22 09:27:41;;;;;;;2.83;1.23;;;14.80;99.90;;;;;;5022852;28;20442;-26
2021/07/22 09:30:13;;;;;;;1.13;1.10;;;14.80;99.90;;;;;;5024548;28;20443;-26
2021/07/22 09:32:46;;;;;;;1.83;1.53;;;14.80;99.90;;;;;;5016992;28;20443;-25
2021/07/22 09:35:20;;;;;;;1.40;1.30;;;14.70;99.90;;;;;;5008796;28;20461;-25
2021/07/22 09:37:52;;;;;;;1.63;1.30;;;14.70;99.90;;;;;;5011762;28;20457;-25
2021/07/22 09:40:35;;;;;;;3.50;1.80;;;14.70;99.90;;;;;;5015411;28;20465;-26
2021/07/22 09:43:09;;;;;;;1.90;1.17;;;14.60;99.90;;;;;;5022502;28;20831;-25
2021/07/22 09:45:48;;;;;;;1.77;1.20;;;14.60;99.90;;;;;;5022364;28;20431;-27
2021/07/22 09:48:19;;;;;;;1.20;1.10;;;14.50;99.90;;;;;;5013408;28;20474;-26
2021/07/22 09:50:52;;;;;;;2.07;1.87;;;14.50;99.90;;;;;;5003743;28;20490;-26
2021/07/22 09:53:23;;;;;;;1.27;1.17;;;14.40;99.90;;;;;;5021110;28;21021;-26
2021/07/22 09:55:57;;;;;;;2.00;1.37;;;14.40;99.90;;;;;;5014061;28;20491;-26
2021/07/22 09:58:32;;;;;;;2.40;1.60;;;14.40;99.90;;;;;;5017044;28;20457;-26
2021/07/22 10:01:03;;;;;;;1.27;1.27;;;14.40;99.90;;;;;;5006865;28;20458;-26
2021/07/22 10:03:36;;;;;;;2.70;1.87;;;14.30;99.90;;;;;;5023155;28;20450;-26
2021/07/22 10:06:09;;;;;;;1.70;1.20;;;14.30;99.90;;;;;;5021084;28;20508;-25
2021/07/22 10:08:41;;;;;;;1.47;1.20;;;14.30;99.90;;;;;;5023414;28;20477;-26
2021/07/22 10:11:13;;;;;;;1.57;1.47;;;14.20;99.90;;;;;;5020390;28;20484;-25
2021/07/22 10:13:46;;;;;;;1.23;1.13;;;14.20;99.90;;;;;;5003200;28;20475;-25
2021/07/22 10:16:19;;;;;;;1.57;1.47;;;14.10;99.90;;;;;;5018800;28;20461;-25
2021/07/22 10:18:53;;;;;;;1.30;1.20;;;14.10;99.90;;;;;;5023059;28;20474;-25
2021/07/22 10:21:24;;;;;;;1.17;1.17;;;14.10;99.90;;;;;;5004029;28;20474;-25
2021/07/22 10:23:55;;;;;;;2.50;1.60;;;14.10;99.90;;;;;;5014890;28;20462;-25
2021/07/22 10:26:27;;;;;;;3.40;1.73;;;14.00;99.90;;;;;;5019528;28;20489;-25
2021/07/22 10:29:00;;;;;;;1.30;1.20;;;14.00;99.90;;;;;;5022296;28;20450;-26
2021/07/22 10:31:31;;;;;;;1.60;1.50;;;14.00;99.90;;;;;;5021416;28;20450;-25
2021/07/22 10:34:02;;;;;;;1.60;1.50;;;13.90;99.90;;;;;;5016181;28;20800;-25
2021/07/22 10:36:34;;;;;;;1.60;1.50;;;13.90;99.90;;;;;;5019634;28;20476;-25
2021/07/22 10:39:05;;;;;;;1.50;1.40;;;13.90;99.90;;;;;;5022814;28;20461;-25
2021/07/22 10:41:39;;;;;;;1.30;1.20;;;13.90;99.90;;;;;;5015518;28;20516;-24
2021/07/22 10:44:33;;;;;;;1.97;1.43;;;13.80;99.90;;;;;;5014785;28;20486;-24
2021/07/22 10:47:07;;;;;;;1.80;1.33;;;13.70;99.90;;;;;;5013163;28;20784;-25
2021/07/22 10:49:40;;;;;;;1.50;1.40;;;13.60;99.90;;;;;;5003432;28;20442;-25
2021/07/22 10:52:11;;;;;;;2.30;2.20;;;13.60;99.90;;;;;;5010550;28;20895;-25
2021/07/22 10:54:48;;;;;;;1.43;1.33;;;13.60;99.90;;;;;;5022579;28;20498;-25
2021/07/22 10:57:37;;;;;;;2.37;1.77;;;13.60;99.90;;;;;;5021666;28;20450;-26
2021/07/22 11:00:12;;;;;;;1.80;1.70;;;13.60;99.90;;;;;;5009939;28;20462;-25
2021/07/22 11:02:48;;;;;;;2.07;1.40;;;13.50;99.90;;;;;;5006815;28;20447;-26
2021/07/22 11:05:55;;;;;;;1.93;1.23;;;13.40;99.90;;;;;;5022208;28;20453;-25
2021/07/22 11:08:29;;;;;;;2.83;1.50;;;13.40;99.90;;;;;;5025984;28;20442;-25
2021/07/22 11:11:01;;;;;;;2.17;1.17;;;13.30;99.90;;;;;;5026616;28;20485;-25
2021/07/22 11:13:50;;;;;;;1.73;1.63;;;13.20;99.90;;;;;;5019581;28;20454;-26
2021/07/22 11:16:25;;;;;;;1.70;1.60;;;13.20;99.90;;;;;;5025468;28;20438;-26
2021/07/22 11:18:59;;;;;;;1.73;1.60;;;13.20;99.90;;;;;;5013664;28;20462;-26
2021/07/22 11:21:33;;;;;;;1.60;1.50;;;13.10;99.90;;;;;;5006330;28;20510;-25
2021/07/22 11:24:09;;;;;;;1.77;1.57;;;13.00;99.90;;;;;;5021222;28;20449;-25
2021/07/22 11:26:41;;;;;;;1.60;1.50;;;13.00;99.90;;;;;;5006944;28;20450;-26
2021/07/22 11:29:15;;;;;;;2.10;1.63;;;12.90;99.90;;;;;;5021280;28;20505;-26
2021/07/22 11:31:49;;;;;;;1.83;1.73;;;12.90;99.90;;;;;;5013325;28;20439;-26
2021/07/22 11:34:28;;;;;;;1.70;1.33;;;13.00;99.90;;;;;;5022211;28;20635;-26
2021/07/22 11:37:01;;;;;;;1.43;1.33;;;12.90;99.90;;;;;;5023278;28;20484;-25
2021/07/22 11:39:33;;;;;;;2.50;1.57;;;12.80;99.90;;;;;;5013221;28;20457;-25
2021/07/22 11:42:10;;;;;;;1.97;1.43;;;12.80;99.90;;;;;;5012621;28;20494;-26
2021/07/22 11:44:42;;;;;;;1.90;1.73;;;12.80;99.90;;;;;;5006733;28;20526;-26
2021/07/22 11:47:15;;;;;;;1.70;1.60;;;12.70;99.90;;;;;;5019834;28;20479;-30
2021/07/22 11:49:47;;;;;;;1.77;1.67;;;12.70;99.90;;;;;;5007043;28;20459;-27
2021/07/22 11:52:18;;;;;;;1.80;1.70;;;12.80;99.90;;;;;;5019168;28;20465;-26
2021/07/22 11:55:06;;;;;;;1.60;1.50;;;12.80;99.90;;;;;;5025923;28;20539;-26
2021/07/22 11:57:38;;;;;;;1.97;1.50;;;12.80;99.90;;;;;;5019936;28;20451;-26
2021/07/22 12:00:20;;;;;;;1.70;1.60;;;12.70;99.90;;;;;;5006761;28;20487;-26
2021/07/22 12:02:57;;;;;;;1.73;1.63;;;12.60;99.90;;;;;;5024319;28;20872;-26
2021/07/22 12:05:30;;;;;;;1.67;1.57;;;12.70;99.90;;;;;;5008279;28;20919;-26
2021/07/22 12:08:16;;;;;;;1.60;1.50;;;12.60;99.90;;;;;;5020932;28;20522;-26
2021/07/22 12:10:47;;;;;;;1.53;1.43;;;12.50;99.90;;;;;;5024583;28;20477;-25
2021/07/22 12:13:19;;;;;;;1.70;1.60;;;12.50;99.90;;;;;;5007789;28;20462;-26
2021/07/22 12:15:50;;;;;;;1.70;1.60;;;12.50;99.90;;;;;;5010612;28;20494;-25
2021/07/22 12:18:25;;;;;;;2.63;1.50;;;12.50;99.90;;;;;;5025889;28;20845;-25
2021/07/22 12:20:56;;;;;;;1.63;1.53;;;12.50;99.90;;;;;;5023315;28;20524;-25
2021/07/22 12:23:31;;;;;;;2.50;1.70;;;12.40;99.90;;;;;;5025323;28;20446;-26
2021/07/22 12:26:03;;;;;;;2.20;2.00;;;12.40;99.90;;;;;;5024655;28;20574;-26
2021/07/22 12:28:34;;;;;;;1.63;1.53;;;12.40;99.90;;;;;;5024339;28;20518;-26
2021/07/22 12:31:22;;;;;;;2.80;1.60;;;12.40;99.90;;;;;;5024718;28;20478;-25
2021/07/22 12:34:03;;;;;;;1.53;1.43;;;12.40;99.90;;;;;;5024890;28;20461;-25
2021/07/22 12:36:35;;;;;;;1.80;1.70;;;12.40;99.90;;;;;;5014478;28;20509;-26
2021/07/22 12:39:13;;;;;;;2.03;1.87;;;12.30;99.90;;;;;;5022579;28;20533;-26
2021/07/22 12:41:47;;;;;;;1.80;1.70;;;12.30;99.90;;;;;;5024197;28;20482;-25
2021/07/22 12:44:51;;;;;;;2.27;1.90;;;12.30;99.90;;;;;;5024629;28;20458;-24
2021/07/22 12:47:32;;;;;;;2.70;2.43;;;12.40;99.90;;;;;;5016888;28;20520;-25
2021/07/22 12:50:08;;;;;;;1.90;1.80;;;12.40;99.90;;;;;;5021029;28;21017;-26
2021/07/22 12:52:50;;;;;;;1.77;1.67;;;12.40;99.90;;;;;;5004593;28;20581;-25
2021/07/22 12:55:31;;;;;;;2.00;1.77;;;12.40;99.90;;;;;;5008293;28;20477;-26
2021/07/22 12:58:02;;;;;;;1.90;1.80;;;12.40;99.90;;;;;;5006372;28;20482;-25
2021/07/22 13:00:42;;;;;;;2.03;1.93;;;12.40;99.90;;;;;;5005602;28;20547;-26
2021/07/22 13:03:13;;;;;;;2.60;2.03;;;12.50;99.90;;;;;;5011709;28;20450;-25
2021/07/22 13:05:46;;;;;;;2.07;1.97;;;12.40;99.90;;;;;;5022654;28;20516;-26
2021/07/22 13:08:17;;;;;;;2.17;1.93;;;12.40;99.90;;;;;;5015189;28;20454;-25
2021/07/22 13:11:06;;;;;;;5.73;1.97;;;12.40;99.90;;;;;;5005697;28;20447;-25
2021/07/22 13:13:39;;;;;;;2.30;1.80;;;12.40;99.90;;;;;;5004922;28;20823;-25
2021/07/22 13:16:11;;;;;;;2.20;1.80;;;12.40;99.90;;;;;;5016594;28;20486;-25